createdAt,value
2018-02-27T00:00:33.125Z,101359.59
2018-02-27T00:01:35.603Z,101360.16
2018-02-27T00:02:38.075Z,101357.00
2018-02-27T00:03:40.558Z,101351.36
2018-02-27T00:04:43.043Z,101354.83
2018-02-27T00:05:45.521Z,101361.60
2018-02-27T00:06:48.002Z,101363.28
2018-02-27T00:07:50.476Z,101363.73
2018-02-27T00:08:52.940Z,101346.73
2018-02-27T00:09:55.431Z,101348.56
2018-02-27T00:10:57.899Z,101354.77
2018-02-27T00:12:00.376Z,101346.95
2018-02-27T00:13:02.873Z,101351.38
2018-02-27T00:14:05.339Z,101352.24
2018-02-27T00:15:07.841Z,101355.70
2018-02-27T00:16:10.311Z,101352.14
2018-02-27T00:17:12.775Z,101356.97
2018-02-27T00:18:15.247Z,101348.22
2018-02-27T00:19:17.717Z,101353.45
2018-02-27T00:20:20.200Z,101352.39
2018-02-27T00:21:22.677Z,101363.94
2018-02-27T00:22:25.143Z,101354.63
2018-02-27T00:23:27.733Z,101353.52
2018-02-27T00:24:30.233Z,101351.48
2018-02-27T00:25:32.761Z,101350.97
2018-02-27T00:26:35.219Z,101356.22
2018-02-27T00:27:37.697Z,101347.05
2018-02-27T00:28:40.166Z,101348.73
2018-02-27T00:29:42.650Z,101336.66
2018-02-27T00:30:45.143Z,101351.11
2018-02-27T00:31:47.620Z,101350.45
2018-02-27T00:32:50.103Z,101348.01
2018-02-27T00:33:52.570Z,101343.06
2018-02-27T00:34:55.046Z,101349.39
2018-02-27T00:35:57.541Z,101349.14
2018-02-27T00:37:00.016Z,101358.50
2018-02-27T00:38:02.495Z,101353.71
2018-02-27T00:39:04.969Z,101362.26
2018-02-27T00:40:07.446Z,101359.25
2018-02-27T00:41:09.945Z,101367.24
2018-02-27T00:42:12.411Z,101368.36
2018-02-27T00:43:14.871Z,101361.79
2018-02-27T00:44:17.356Z,101369.59
2018-02-27T00:45:19.818Z,101373.19
2018-02-27T00:46:22.317Z,101369.89
2018-02-27T00:47:24.785Z,101371.02
2018-02-27T00:48:27.273Z,101373.47
2018-02-27T00:49:29.776Z,101373.21
2018-02-27T00:50:32.266Z,101370.20
2018-02-27T00:51:34.779Z,101379.01
2018-02-27T00:52:37.261Z,101374.22
2018-02-27T00:53:39.750Z,101373.15
2018-02-27T00:54:42.211Z,101376.05
2018-02-27T00:55:44.699Z,101372.73
2018-02-27T00:56:47.183Z,101375.64
2018-02-27T00:57:49.664Z,101374.42
2018-02-27T00:58:52.145Z,101387.08
2018-02-27T00:59:54.679Z,101374.20
2018-02-27T01:00:57.166Z,101372.16
2018-02-27T01:01:59.734Z,101380.96
2018-02-27T01:03:02.225Z,101380.45
2018-02-27T01:04:04.708Z,101383.46
2018-02-27T01:05:07.175Z,101391.03
2018-02-27T01:06:09.657Z,101378.67
2018-02-27T01:07:12.135Z,101386.66
2018-02-27T01:08:14.602Z,101384.62
2018-02-27T01:09:17.068Z,101386.55
2018-02-27T01:10:19.533Z,101385.47
2018-02-27T01:11:22.011Z,101386.03
2018-02-27T01:12:24.494Z,101394.01
2018-02-27T01:13:27.009Z,101391.82
2018-02-27T01:14:29.447Z,101383.44
2018-02-27T01:15:32.026Z,101391.27
2018-02-27T01:16:34.506Z,101384.95
2018-02-27T01:17:37.001Z,101375.90
2018-02-27T01:18:39.481Z,101377.83
2018-02-27T01:19:41.970Z,101380.17
2018-02-27T01:20:44.449Z,101379.09
2018-02-27T01:21:46.936Z,101383.92
2018-02-27T01:22:49.449Z,101386.41
2018-02-27T01:23:51.936Z,101383.67
2018-02-27T01:24:54.418Z,101391.24
2018-02-27T01:25:57.079Z,101391.14
2018-02-27T01:26:59.534Z,101392.66
2018-02-27T01:28:02.034Z,101383.91
2018-02-27T01:29:04.513Z,101392.70
2018-02-27T01:30:06.998Z,101387.20
2018-02-27T01:31:09.477Z,101387.88
2018-02-27T01:32:11.947Z,101384.87
2018-02-27T01:33:14.445Z,101391.32
2018-02-27T01:34:16.911Z,101392.84
2018-02-27T01:35:19.383Z,101388.72
2018-02-27T01:36:21.873Z,101390.25
2018-02-27T01:37:24.357Z,101381.34
2018-02-27T01:38:26.852Z,101385.20
2018-02-27T01:39:29.328Z,101381.23
2018-02-27T01:40:31.791Z,101392.52
2018-02-27T01:41:34.255Z,101393.07
2018-02-27T01:42:36.722Z,101389.22
2018-02-27T01:43:39.233Z,101388.55
2018-02-27T01:44:41.700Z,101386.52
2018-02-27T01:45:44.186Z,101392.16
2018-02-27T01:46:46.681Z,101382.02
2018-02-27T01:47:49.269Z,101387.11
2018-02-27T01:48:51.779Z,101383.14
2018-02-27T01:49:54.268Z,101384.80
2018-02-27T01:51:08.814Z,101376.02
2018-02-27T01:52:11.293Z,101386.33
2018-02-27T01:53:13.759Z,101388.66
2018-02-27T01:54:16.239Z,101385.25
2018-02-27T01:55:18.734Z,101385.40
2018-02-27T01:56:21.319Z,101381.98
2018-02-27T01:57:23.804Z,101384.33
2018-02-27T01:58:26.271Z,101385.84
2018-02-27T01:59:28.758Z,101385.00
2018-02-27T02:00:31.248Z,101386.11
2018-02-27T02:01:33.715Z,101382.55
2018-02-27T02:02:36.185Z,101377.20
2018-02-27T02:03:38.660Z,101381.47
2018-02-27T02:04:41.142Z,101379.28
2018-02-27T02:05:43.639Z,101382.59
2018-02-27T02:06:46.129Z,101386.30
2018-02-27T02:07:48.625Z,101377.66
2018-02-27T02:08:51.114Z,101376.02
2018-02-27T02:09:53.613Z,101375.61
2018-02-27T02:10:56.087Z,101370.68
2018-02-27T02:11:58.588Z,101369.05
2018-02-27T02:13:01.068Z,101378.25
2018-02-27T02:14:03.560Z,101371.94
2018-02-27T02:15:06.051Z,101368.79
2018-02-27T02:16:08.543Z,101369.60
2018-02-27T02:17:11.032Z,101368.79
2018-02-27T02:18:13.499Z,101363.70
2018-02-27T02:19:15.975Z,101359.73
2018-02-27T02:20:18.467Z,101370.72
2018-02-27T02:21:20.936Z,101368.53
2018-02-27T02:22:23.402Z,101364.56
2018-02-27T02:23:25.882Z,101362.93
2018-02-27T02:24:28.347Z,101359.92
2018-02-27T02:25:30.849Z,101363.08
2018-02-27T02:26:33.326Z,101351.98
2018-02-27T02:27:35.796Z,101359.81
2018-02-27T02:28:38.274Z,101357.19
2018-02-27T02:29:40.755Z,101358.70
2018-02-27T02:30:43.261Z,101354.33
2018-02-27T02:31:45.739Z,101351.18
2018-02-27T02:32:48.216Z,101352.84
2018-02-27T02:33:50.698Z,101351.22
2018-02-27T02:34:53.172Z,101344.80
2018-02-27T02:35:55.659Z,101346.17
2018-02-27T02:36:58.158Z,101345.35
2018-02-27T02:38:00.685Z,101350.84
2018-02-27T02:39:03.154Z,101343.73
2018-02-27T02:40:05.634Z,101348.39
2018-02-27T02:41:08.141Z,101347.31
2018-02-27T02:42:25.496Z,101350.21
2018-02-27T02:43:27.974Z,101349.14
2018-02-27T02:44:30.461Z,101350.09
2018-02-27T02:45:32.938Z,101351.21
2018-02-27T02:46:35.431Z,101353.55
2018-02-27T02:47:37.911Z,101351.33
2018-02-27T02:48:40.401Z,101352.84
2018-02-27T02:49:42.888Z,101347.51
2018-02-27T02:50:45.369Z,101352.59
2018-02-27T02:51:47.867Z,101351.77
2018-02-27T02:52:50.342Z,101351.48
2018-02-27T02:53:52.849Z,101354.92
2018-02-27T02:54:55.337Z,101353.30
2018-02-27T02:55:57.814Z,101360.30
2018-02-27T02:57:00.321Z,101355.92
2018-02-27T02:58:02.815Z,101362.52
2018-02-27T02:59:05.305Z,101361.30
2018-02-27T03:00:07.778Z,101357.73
2018-02-27T03:01:10.255Z,101356.10
2018-02-27T03:02:12.752Z,101360.36
2018-02-27T03:03:15.230Z,101363.25
2018-02-27T03:04:17.703Z,101362.59
2018-02-27T03:05:20.189Z,101363.14
2018-02-27T03:06:22.677Z,101360.11
2018-02-27T03:07:25.175Z,101360.55
2018-02-27T03:08:27.639Z,101361.22
2018-02-27T03:09:30.160Z,101360.81
2018-02-27T03:10:32.646Z,101359.99
2018-02-27T03:11:35.134Z,101354.25
2018-02-27T03:12:37.631Z,101352.88
2018-02-27T03:13:40.110Z,101354.39
2018-02-27T03:14:42.597Z,101358.91
2018-02-27T03:15:45.072Z,101358.66
2018-02-27T03:16:47.549Z,101358.66
2018-02-27T03:17:50.069Z,101357.28
2018-02-27T03:18:52.541Z,101356.61
2018-02-27T03:19:55.019Z,101352.09
2018-02-27T03:20:57.495Z,101353.46
2018-02-27T03:21:59.990Z,101355.24
2018-02-27T03:23:02.492Z,101351.83
2018-02-27T03:24:04.977Z,101354.58
2018-02-27T03:25:07.462Z,101349.94
2018-02-27T03:26:09.935Z,101350.91
2018-02-27T03:27:12.415Z,101348.56
2018-02-27T03:28:14.913Z,101350.34
2018-02-27T03:29:17.394Z,101351.31
2018-02-27T03:30:19.877Z,101345.56
2018-02-27T03:31:22.360Z,101345.16
2018-02-27T03:32:24.842Z,101346.67
2018-02-27T03:33:27.343Z,101346.82
2018-02-27T03:34:29.832Z,101346.15
2018-02-27T03:35:32.317Z,101349.59
2018-02-27T03:36:34.798Z,101347.93
2018-02-27T03:37:37.287Z,101343.00
2018-02-27T03:38:39.800Z,101344.11
2018-02-27T03:39:42.278Z,101353.30
2018-02-27T03:40:44.763Z,101349.89
2018-02-27T03:41:47.247Z,101347.30
2018-02-27T03:42:49.719Z,101351.14
2018-02-27T03:43:52.278Z,101348.26
2018-02-27T03:44:54.755Z,101346.33
2018-02-27T03:45:57.231Z,101349.48
2018-02-27T03:46:59.731Z,101344.00
2018-02-27T03:48:02.356Z,101348.11
2018-02-27T03:49:04.849Z,101345.37
2018-02-27T03:50:07.319Z,101348.52
2018-02-27T03:51:09.800Z,101343.44
2018-02-27T03:52:15.151Z,101346.59
2018-02-27T03:53:17.631Z,101345.63
2018-02-27T03:54:20.107Z,101351.26
2018-02-27T03:55:22.597Z,101345.37
2018-02-27T03:56:25.081Z,101345.66
2018-02-27T03:57:27.578Z,101352.66
2018-02-27T03:58:30.077Z,101345.55
2018-02-27T03:59:32.579Z,101348.03
2018-02-27T04:00:35.055Z,101341.31
2018-02-27T04:01:37.527Z,101347.50
2018-02-27T04:02:40.017Z,101342.57
2018-02-27T04:03:42.513Z,101340.39
2018-02-27T04:04:45.006Z,101336.97
2018-02-27T04:05:47.497Z,101335.75
2018-02-27T04:06:49.971Z,101340.56
2018-02-27T04:07:52.462Z,101346.16
2018-02-27T04:08:54.958Z,101332.19
2018-02-27T04:09:57.437Z,101329.59
2018-02-27T04:10:59.915Z,101335.63
2018-02-27T04:12:02.404Z,101331.26
2018-02-27T04:13:04.868Z,101333.19
2018-02-27T04:14:07.353Z,101328.81
2018-02-27T04:15:09.830Z,101324.44
2018-02-27T04:16:12.323Z,101326.77
2018-02-27T04:17:14.799Z,101335.70
2018-02-27T04:18:17.293Z,101326.66
2018-02-27T04:19:19.770Z,101330.50
2018-02-27T04:20:22.290Z,101322.98
2018-02-27T04:21:24.763Z,101326.54
2018-02-27T04:22:27.277Z,101323.69
2018-02-27T04:23:29.765Z,101329.16
2018-02-27T04:24:32.247Z,101329.72
2018-02-27T04:25:34.723Z,101332.05
2018-02-27T04:26:37.195Z,101328.91
2018-02-27T04:27:39.690Z,101329.86
2018-02-27T04:28:42.218Z,101329.86
2018-02-27T04:29:44.753Z,101330.83
2018-02-27T04:30:47.249Z,101333.72
2018-02-27T04:31:49.723Z,101333.83
2018-02-27T04:32:52.213Z,101337.53
2018-02-27T04:33:54.695Z,101330.16
2018-02-27T04:34:57.179Z,101328.91
2018-02-27T04:35:59.681Z,101335.34
2018-02-27T04:37:02.162Z,101331.38
2018-02-27T04:38:04.649Z,101334.67
2018-02-27T04:39:07.125Z,101330.16
2018-02-27T04:40:09.617Z,101335.23
2018-02-27T04:41:12.087Z,101339.75
2018-02-27T04:42:14.553Z,101338.52
2018-02-27T04:43:17.024Z,101334.97
2018-02-27T04:44:19.498Z,101342.23
2018-02-27T04:45:21.988Z,101338.67
2018-02-27T04:46:24.465Z,101340.59
2018-02-27T04:47:26.955Z,101336.89
2018-02-27T04:48:29.442Z,101343.33
2018-02-27T04:49:31.927Z,101341.15
2018-02-27T04:50:34.416Z,101345.81
2018-02-27T04:51:36.912Z,101343.22
2018-02-27T04:52:39.387Z,101344.33
2018-02-27T04:53:41.874Z,101339.95
2018-02-27T04:54:44.359Z,101337.77
2018-02-27T04:55:46.826Z,101338.32
2018-02-27T04:56:49.327Z,101335.72
2018-02-27T04:57:51.804Z,101333.69
2018-02-27T04:58:54.293Z,101336.57
2018-02-27T04:59:56.777Z,101336.72
2018-02-27T05:00:59.251Z,101337.41
2018-02-27T05:02:01.761Z,101338.08
2018-02-27T05:03:04.256Z,101338.63
2018-02-27T05:04:06.726Z,101341.52
2018-02-27T05:05:09.202Z,101334.00
2018-02-27T05:06:11.686Z,101331.81
2018-02-27T05:07:14.179Z,101331.55
2018-02-27T05:08:16.670Z,101334.29
2018-02-27T05:09:19.155Z,101339.09
2018-02-27T05:10:21.641Z,101331.44
2018-02-27T05:11:24.156Z,101336.23
2018-02-27T05:12:26.668Z,101341.72
2018-02-27T05:13:29.160Z,101340.09
2018-02-27T05:14:31.635Z,101340.91
2018-02-27T05:15:34.111Z,101344.61
2018-02-27T05:16:36.598Z,101343.38
2018-02-27T05:17:39.105Z,101342.42
2018-02-27T05:18:41.575Z,101345.97
2018-02-27T05:19:44.048Z,101346.13
2018-02-27T05:20:46.671Z,101336.13
2018-02-27T05:21:49.162Z,101342.30
2018-02-27T05:22:51.678Z,101342.03
2018-02-27T05:23:54.161Z,101345.63
2018-02-27T05:24:56.637Z,101338.91
2018-02-27T05:25:59.141Z,101339.88
2018-02-27T05:27:01.619Z,101344.10
2018-02-27T05:28:04.110Z,101344.25
2018-02-27T05:29:06.582Z,101340.55
2018-02-27T05:30:09.064Z,101336.72
2018-02-27T05:31:11.547Z,101335.36
2018-02-27T05:32:14.099Z,101330.43
2018-02-27T05:33:16.595Z,101335.91
2018-02-27T05:34:19.074Z,101331.80
2018-02-27T05:35:21.548Z,101330.43
2018-02-27T05:36:24.015Z,101327.42
2018-02-27T05:37:26.510Z,101330.45
2018-02-27T05:38:29.024Z,101336.48
2018-02-27T05:39:31.521Z,101338.41
2018-02-27T05:40:34.011Z,101332.26
2018-02-27T05:41:36.493Z,101329.66
2018-02-27T05:42:38.988Z,101333.77
2018-02-27T05:43:41.490Z,101333.92
2018-02-27T05:44:43.982Z,101334.06
2018-02-27T05:45:46.460Z,101333.24
2018-02-27T05:46:48.948Z,101332.58
2018-02-27T05:47:51.421Z,101335.45
2018-02-27T05:48:53.939Z,101333.68
2018-02-27T05:49:56.411Z,101328.75
2018-02-27T05:50:58.883Z,101332.86
2018-02-27T05:52:01.359Z,101331.20
2018-02-27T05:53:03.865Z,101329.83
2018-02-27T05:54:06.360Z,101326.68
2018-02-27T05:55:08.835Z,101329.94
2018-02-27T05:56:11.307Z,101329.42
2018-02-27T05:57:13.801Z,101330.09
2018-02-27T05:58:16.276Z,101330.64
2018-02-27T05:59:18.763Z,101327.23
2018-02-27T06:00:21.246Z,101328.59
2018-02-27T06:01:23.733Z,101332.84
2018-02-27T06:02:26.199Z,101329.30
2018-02-27T06:03:28.675Z,101331.22
2018-02-27T06:04:31.197Z,101334.50
2018-02-27T06:05:33.680Z,101330.13
2018-02-27T06:06:36.155Z,101332.20
2018-02-27T06:07:38.632Z,101334.53
2018-02-27T06:08:41.105Z,101337.41
2018-02-27T06:09:43.600Z,101329.34
2018-02-27T06:10:46.076Z,101329.89
2018-02-27T06:11:48.561Z,101334.97
2018-02-27T06:12:51.046Z,101329.08
2018-02-27T06:13:53.520Z,101336.07
2018-02-27T06:14:56.025Z,101331.55
2018-02-27T06:15:58.495Z,101333.47
2018-02-27T06:17:00.976Z,101331.96
2018-02-27T06:18:03.452Z,101329.78
2018-02-27T06:19:05.946Z,101332.11
2018-02-27T06:20:08.454Z,101329.36
2018-02-27T06:21:10.936Z,101328.41
2018-02-27T06:22:13.428Z,101337.84
2018-02-27T06:23:15.911Z,101327.85
2018-02-27T06:24:18.379Z,101334.29
2018-02-27T06:25:20.893Z,101334.70
2018-02-27T06:26:23.380Z,101338.13
2018-02-27T06:27:25.853Z,101334.17
2018-02-27T06:28:28.448Z,101334.31
2018-02-27T06:29:30.926Z,101338.97
2018-02-27T06:30:33.446Z,101335.94
2018-02-27T06:31:35.952Z,101334.45
2018-02-27T06:32:38.428Z,101338.29
2018-02-27T06:33:40.917Z,101342.13
2018-02-27T06:34:43.402Z,101341.87
2018-02-27T06:35:45.900Z,101342.83
2018-02-27T06:36:48.372Z,101346.53
2018-02-27T06:37:50.843Z,101345.85
2018-02-27T06:38:53.320Z,101342.85
2018-02-27T06:39:55.794Z,101343.41
2018-02-27T06:40:58.301Z,101344.92
2018-02-27T06:42:00.775Z,101343.69
2018-02-27T06:43:03.247Z,101345.20
2018-02-27T06:44:05.733Z,101342.61
2018-02-27T06:45:08.211Z,101348.64
2018-02-27T06:46:10.719Z,101351.11
2018-02-27T06:47:13.251Z,101348.11
2018-02-27T06:48:15.757Z,101345.48
2018-02-27T06:49:18.566Z,101342.74
2018-02-27T06:50:21.067Z,101348.50
2018-02-27T06:51:23.575Z,101348.50
2018-02-27T06:52:26.048Z,101343.17
2018-02-27T06:53:28.547Z,101345.09
2018-02-27T06:54:31.019Z,101345.50
2018-02-27T06:55:33.517Z,101345.64
2018-02-27T06:56:36.015Z,101341.13
2018-02-27T06:57:38.561Z,101336.76
2018-02-27T06:58:41.036Z,101334.98
2018-02-27T06:59:43.520Z,101341.41
2018-02-27T07:00:45.997Z,101333.34
2018-02-27T07:01:48.501Z,101334.31
2018-02-27T07:02:51.000Z,101337.05
2018-02-27T07:03:53.509Z,101335.53
2018-02-27T07:04:55.993Z,101337.86
2018-02-27T07:05:58.475Z,101333.90
2018-02-27T07:07:00.990Z,101337.59
2018-02-27T07:08:03.478Z,101332.27
2018-02-27T07:09:05.970Z,101332.53
2018-02-27T07:10:08.456Z,101325.14
2018-02-27T07:11:10.927Z,101329.36
2018-02-27T07:12:13.411Z,101327.70
2018-02-27T07:13:15.936Z,101324.97
2018-02-27T07:14:18.438Z,101324.97
2018-02-27T07:15:20.951Z,101319.91
2018-02-27T07:16:23.443Z,101322.50
2018-02-27T07:17:25.935Z,101320.17
2018-02-27T07:18:28.425Z,101316.61
2018-02-27T07:19:30.904Z,101313.47
2018-02-27T07:20:33.375Z,101315.80
2018-02-27T07:21:35.871Z,101309.50
2018-02-27T07:22:38.466Z,101311.84
2018-02-27T07:23:40.965Z,101311.98
2018-02-27T07:24:43.508Z,101312.13
2018-02-27T07:25:45.979Z,101314.19
2018-02-27T07:26:48.461Z,101307.63
2018-02-27T07:27:51.013Z,101308.19
2018-02-27T07:28:53.508Z,101316.39
2018-02-27T07:29:56.000Z,101313.11
2018-02-27T07:30:58.489Z,101314.59
2018-02-27T07:32:00.981Z,101310.61
2018-02-27T07:33:03.485Z,101309.62
2018-02-27T07:34:05.965Z,101315.23
2018-02-27T07:35:08.457Z,101313.14
2018-02-27T07:36:10.941Z,101318.72
2018-02-27T07:37:13.429Z,101316.77
2018-02-27T07:38:15.922Z,101316.66
2018-02-27T07:39:18.417Z,101316.77
2018-02-27T07:40:20.913Z,101316.53
2018-02-27T07:41:23.392Z,101315.16
2018-02-27T07:42:25.876Z,101315.19
2018-02-27T07:43:28.383Z,101308.08
2018-02-27T07:44:30.873Z,101313.96
2018-02-27T07:45:33.393Z,101310.41
2018-02-27T07:46:35.867Z,101309.59
2018-02-27T07:47:38.353Z,101314.80
2018-02-27T07:48:40.848Z,101311.68
2018-02-27T07:49:43.399Z,101308.28
2018-02-27T07:50:45.888Z,101315.02
2018-02-27T07:51:48.374Z,101310.70
2018-02-27T07:52:50.855Z,101309.36
2018-02-27T07:53:53.349Z,101308.73
2018-02-27T07:54:55.836Z,101311.73
2018-02-27T07:55:58.325Z,101311.34
2018-02-27T07:57:00.800Z,101313.27
2018-02-27T07:58:03.290Z,101312.84
2018-02-27T07:59:05.763Z,101306.28
2018-02-27T08:00:08.250Z,101311.97
2018-02-27T08:01:10.722Z,101311.36
2018-02-27T08:02:13.217Z,101303.83
2018-02-27T08:03:15.693Z,101311.56
2018-02-27T08:04:18.167Z,101307.73
2018-02-27T08:05:20.657Z,101305.45
2018-02-27T08:06:23.165Z,101308.84
2018-02-27T08:07:25.673Z,101307.45
2018-02-27T08:08:28.161Z,101305.07
2018-02-27T08:09:30.636Z,101304.05
2018-02-27T08:10:33.107Z,101303.50
2018-02-27T08:11:35.603Z,101300.39
2018-02-27T08:12:38.079Z,101304.31
2018-02-27T08:13:40.572Z,101306.58
2018-02-27T08:14:43.050Z,101301.87
2018-02-27T08:15:45.577Z,101306.92
2018-02-27T08:16:48.053Z,101299.50
2018-02-27T08:17:50.537Z,101301.09
2018-02-27T08:18:53.028Z,101297.72
2018-02-27T08:19:55.507Z,101298.58
2018-02-27T08:20:57.982Z,101304.09
2018-02-27T08:22:00.469Z,101298.88
2018-02-27T08:23:02.944Z,101295.24
2018-02-27T08:24:05.427Z,101294.05
2018-02-27T08:25:07.901Z,101299.01
2018-02-27T08:26:10.392Z,101291.28
2018-02-27T08:27:12.872Z,101293.34
2018-02-27T08:28:15.382Z,101296.30
2018-02-27T08:29:17.912Z,101291.17
2018-02-27T08:30:20.396Z,101291.54
2018-02-27T08:31:22.887Z,101283.01
2018-02-27T08:32:25.388Z,101293.39
2018-02-27T08:33:27.875Z,101289.97
2018-02-27T08:34:30.386Z,101286.62
2018-02-27T08:35:32.885Z,101285.09
2018-02-27T08:36:35.366Z,101288.36
2018-02-27T08:37:37.846Z,101287.80
2018-02-27T08:38:40.354Z,101286.36
2018-02-27T08:39:42.820Z,101282.80
2018-02-27T08:40:45.310Z,101276.75
2018-02-27T08:41:47.830Z,101283.77
2018-02-27T08:42:50.359Z,101287.24
2018-02-27T08:43:53.015Z,101279.42
2018-02-27T08:44:55.513Z,101280.66
2018-02-27T08:45:57.993Z,101274.55
2018-02-27T08:47:00.468Z,101277.39
2018-02-27T08:48:02.957Z,101271.72
2018-02-27T08:49:05.450Z,101275.32
2018-02-27T08:50:07.991Z,101280.41
2018-02-27T08:51:10.501Z,101289.96
2018-02-27T08:52:12.991Z,101281.27
2018-02-27T08:53:15.467Z,101276.98
2018-02-27T08:54:17.956Z,101277.13
2018-02-27T08:55:20.446Z,101277.98
2018-02-27T08:56:22.923Z,101277.32
2018-02-27T08:57:25.411Z,101267.53
2018-02-27T08:58:27.897Z,101274.55
2018-02-27T08:59:30.398Z,101272.29
2018-02-27T09:00:32.886Z,101274.83
2018-02-27T09:01:35.372Z,101276.27
2018-02-27T09:02:37.874Z,101276.89
2018-02-27T09:03:40.356Z,101276.41
2018-02-27T09:04:42.853Z,101278.59
2018-02-27T09:05:45.319Z,101276.36
2018-02-27T09:06:47.819Z,101272.73
2018-02-27T09:07:50.314Z,101276.61
2018-02-27T09:08:52.808Z,101284.45
2018-02-27T09:09:55.314Z,101275.23
2018-02-27T09:10:57.796Z,101276.20
2018-02-27T09:12:00.259Z,101281.07
2018-02-27T09:13:02.766Z,101279.34
2018-02-27T09:14:05.270Z,101275.72
2018-02-27T09:15:07.757Z,101271.03
2018-02-27T09:16:10.242Z,101265.19
2018-02-27T09:17:12.734Z,101265.69
2018-02-27T09:18:15.216Z,101266.80
2018-02-27T09:19:17.888Z,101267.48
2018-02-27T09:20:20.506Z,101266.95
2018-02-27T09:21:22.964Z,101268.80
2018-02-27T09:22:25.596Z,101263.52
2018-02-27T09:23:28.068Z,101257.94
2018-02-27T09:24:30.552Z,101262.95
2018-02-27T09:25:33.070Z,101264.67
2018-02-27T09:26:35.507Z,101261.41
2018-02-27T09:27:38.014Z,101261.41
2018-02-27T09:28:40.555Z,101259.85
2018-02-27T09:29:43.069Z,101258.41
2018-02-27T09:30:45.558Z,101254.59
2018-02-27T09:31:48.028Z,101253.13
2018-02-27T09:32:50.496Z,101250.87
2018-02-27T09:33:52.971Z,101252.75
2018-02-27T09:34:55.793Z,101251.27
2018-02-27T09:35:58.271Z,101247.77
2018-02-27T09:37:00.764Z,101247.28
2018-02-27T09:38:03.261Z,101248.09
2018-02-27T09:39:05.750Z,101242.95
2018-02-27T09:40:08.234Z,101240.86
2018-02-27T09:41:11.018Z,101247.75
2018-02-27T09:42:13.778Z,101237.54
2018-02-27T09:43:16.271Z,101241.18
2018-02-27T09:44:19.654Z,101240.48
2018-02-27T09:45:22.235Z,101236.36
2018-02-27T09:46:24.725Z,101230.08
2018-02-27T09:47:27.279Z,101227.95
2018-02-27T09:48:29.747Z,101225.83
2018-02-27T09:49:32.212Z,101230.44
2018-02-27T09:50:34.678Z,101234.41
2018-02-27T09:51:37.152Z,101225.83
2018-02-27T09:52:39.630Z,101232.02
2018-02-27T09:53:42.109Z,101233.41
2018-02-27T09:54:44.576Z,101239.44
2018-02-27T09:55:47.079Z,101232.45
2018-02-27T09:56:49.675Z,101238.64
2018-02-27T09:57:52.158Z,101237.55
2018-02-27T09:58:54.637Z,101233.20
2018-02-27T09:59:57.282Z,101239.69
2018-02-27T10:00:59.753Z,101236.13
2018-02-27T10:02:02.376Z,101233.05
2018-02-27T10:03:04.847Z,101236.44
2018-02-27T10:04:07.344Z,101227.92
2018-02-27T10:05:09.971Z,101230.50
2018-02-27T10:06:12.502Z,101225.34
2018-02-27T10:07:14.967Z,101218.12
2018-02-27T10:08:18.039Z,101218.77
2018-02-27T10:09:20.532Z,101221.43
2018-02-27T10:10:23.008Z,101213.89
2018-02-27T10:11:25.477Z,101214.30
2018-02-27T10:12:27.977Z,101217.30
2018-02-27T10:13:30.453Z,101209.19
2018-02-27T10:14:32.939Z,101210.73
2018-02-27T10:15:35.428Z,101206.87
2018-02-27T10:16:37.895Z,101215.92
2018-02-27T10:17:40.398Z,101214.80
2018-02-27T10:18:42.891Z,101204.96
2018-02-27T10:19:45.385Z,101208.14
2018-02-27T10:20:47.868Z,101206.64
2018-02-27T10:21:50.355Z,101202.10
2018-02-27T10:22:52.823Z,101204.70
2018-02-27T10:23:55.300Z,101205.70
2018-02-27T10:24:57.806Z,101209.02
2018-02-27T10:26:00.454Z,101211.59
2018-02-27T10:27:02.931Z,101198.97
2018-02-27T10:28:05.406Z,101200.82
2018-02-27T10:29:07.890Z,101200.13
2018-02-27T10:30:10.363Z,101202.77
2018-02-27T10:31:12.823Z,101205.36
2018-02-27T10:32:15.291Z,101196.31
2018-02-27T10:33:17.759Z,101202.39
2018-02-27T10:34:20.238Z,101201.00
2018-02-27T10:35:23.069Z,101195.06
2018-02-27T10:36:25.557Z,101198.70
2018-02-27T10:37:28.023Z,101201.44
2018-02-27T10:38:30.491Z,101190.17
2018-02-27T10:39:32.955Z,101197.38
2018-02-27T10:40:35.419Z,101189.59
2018-02-27T10:41:37.890Z,101187.31
2018-02-27T10:42:40.373Z,101187.06
2018-02-27T10:43:42.864Z,101187.75
2018-02-27T10:44:45.327Z,101186.28
2018-02-27T10:45:47.799Z,101187.82
2018-02-27T10:46:50.281Z,101189.27
2018-02-27T10:47:52.775Z,101186.11
2018-02-27T10:48:55.246Z,101181.09
2018-02-27T10:49:57.732Z,101185.69
2018-02-27T10:51:00.213Z,101192.66
2018-02-27T10:52:02.679Z,101183.83
2018-02-27T10:53:05.162Z,101184.23
2018-02-27T10:54:07.645Z,101190.41
2018-02-27T10:55:10.111Z,101179.70
2018-02-27T10:56:12.605Z,101182.77
2018-02-27T10:57:15.112Z,101181.44
2018-02-27T10:58:17.570Z,101175.11
2018-02-27T10:59:20.035Z,101173.98
2018-02-27T11:00:28.131Z,101179.97
2018-02-27T11:01:30.596Z,101179.78
2018-02-27T11:02:33.073Z,101182.61
2018-02-27T11:03:35.534Z,101170.46
2018-02-27T11:04:38.009Z,101168.77
2018-02-27T11:05:40.476Z,101165.63
2018-02-27T11:06:42.947Z,101173.38
2018-02-27T11:07:45.425Z,101162.45
2018-02-27T11:08:47.895Z,101172.00
2018-02-27T11:09:50.366Z,101174.03
2018-02-27T11:10:52.832Z,101170.30
2018-02-27T11:11:55.339Z,101163.42
2018-02-27T11:12:57.828Z,101163.73
2018-02-27T11:14:00.337Z,101174.91
2018-02-27T11:15:02.813Z,101160.13
2018-02-27T11:16:05.282Z,101159.94
2018-02-27T11:17:07.783Z,101160.58
2018-02-27T11:18:10.249Z,101162.27
2018-02-27T11:19:12.742Z,101157.33
2018-02-27T11:20:15.221Z,101153.28
2018-02-27T11:21:17.688Z,101157.34
2018-02-27T11:22:20.201Z,101165.06
2018-02-27T11:23:22.718Z,101165.52
2018-02-27T11:24:25.187Z,101148.77
2018-02-27T11:25:27.711Z,101163.35
2018-02-27T11:26:30.194Z,101160.93
2018-02-27T11:27:32.698Z,101155.24
2018-02-27T11:28:35.168Z,101147.53
2018-02-27T11:29:37.650Z,101145.69
2018-02-27T11:30:40.115Z,101153.55
2018-02-27T11:31:42.604Z,101155.72
2018-02-27T11:32:45.103Z,101151.03
2018-02-27T11:33:47.586Z,101141.20
2018-02-27T11:34:50.080Z,101144.93
2018-02-27T11:35:52.556Z,101149.00
2018-02-27T11:36:55.053Z,101142.69
2018-02-27T11:37:57.561Z,101149.51
2018-02-27T11:39:00.032Z,101140.19
2018-02-27T11:40:02.527Z,101133.27
2018-02-27T11:41:05.012Z,101127.37
2018-02-27T11:42:07.491Z,101136.83
2018-02-27T11:43:09.984Z,101128.98
2018-02-27T11:44:12.451Z,101126.75
2018-02-27T11:45:14.915Z,101135.95
2018-02-27T11:46:17.393Z,101127.39
2018-02-27T11:47:19.877Z,101128.77
2018-02-27T11:48:22.371Z,101119.14
2018-02-27T11:49:24.914Z,101111.37
2018-02-27T11:50:27.399Z,101123.81
2018-02-27T11:51:29.894Z,101119.44
2018-02-27T11:52:32.384Z,101125.47
2018-02-27T11:53:35.078Z,101130.43